Time;durP1;ratioP1;P1;durP2;ratioP2;P2;SDS_P1;SDS_P2;PMS_P1;PMS_P2;Temp;Humidity;BMP_temperature;BMP_pressure;BME280_temperature;BME280_humidity;BME280_pressure;Samples;Min_cycle;Max_cycle;Signal;HPM_P1;HPM_P2
2023/01/14 00:00:17;;;;;;;12.90;2.50;;;;;2.70;94241.00;;;;7397501;19;20192;-76
2023/01/14 00:02:47;;;;;;;15.67;2.60;;;;;2.80;94247.00;;;;7397204;19;20200;-76
2023/01/14 00:05:27;;;;;;;11.87;2.27;;;;;2.60;94257.00;;;;7396320;19;20164;-76
2023/01/14 00:08:01;;;;;;;13.67;2.13;;;;;2.80;94270.00;;;;7396065;19;20141;-75
2023/01/14 00:10:37;;;;;;;12.87;2.97;;;;;2.70;94261.00;;;;7397038;19;20124;-76
2023/01/14 00:13:04;;;;;;;16.00;3.43;;;;;2.70;94266.00;;;;7399119;19;20146;-75
2023/01/14 00:15:38;;;;;;;16.37;2.20;;;;;2.60;94264.00;;;;7396011;19;20159;-76
2023/01/14 00:18:05;;;;;;;12.13;2.53;;;;;2.60;94267.00;;;;7396510;19;20592;-75
2023/01/14 00:20:39;;;;;;;12.23;2.30;;;;;2.50;94265.00;;;;7396174;19;20144;-74
2023/01/14 00:23:13;;;;;;;15.80;2.70;;;;;2.60;94275.00;;;;7398744;19;20123;-75
2023/01/14 00:25:47;;;;;;;15.97;2.20;;;;;2.50;94279.00;;;;7395952;19;20558;-74
2023/01/14 00:28:21;;;;;;;11.43;2.00;;;;;2.60;94278.00;;;;7397413;19;20484;-74
2023/01/14 00:30:48;;;;;;;10.77;1.90;;;;;2.70;94267.00;;;;7398878;19;20145;-75
2023/01/14 00:33:22;;;;;;;10.77;2.10;;;;;2.60;94266.00;;;;7397127;19;20614;-76
2023/01/14 00:35:53;;;;;;;11.80;1.87;;;;;2.70;94264.00;;;;7405481;19;20137;-75
2023/01/14 00:38:28;;;;;;;13.40;2.47;;;;;2.70;94255.00;;;;7404570;19;20179;-75
2023/01/14 00:41:07;;;;;;;7.73;1.90;;;;;2.60;94262.00;;;;7404557;19;20132;-75
2023/01/14 00:43:49;;;;;;;8.67;1.90;;;;;2.60;94264.00;;;;7405637;19;20499;-74
2023/01/14 00:46:19;;;;;;;13.50;2.10;;;;;2.60;94262.00;;;;7406169;19;20607;-74
2023/01/14 00:48:53;;;;;;;8.67;2.30;;;;;2.60;94259.00;;;;7403713;19;20133;-74
2023/01/14 00:51:21;;;;;;;15.40;2.10;;;;;2.70;94260.00;;;;7405973;19;20149;-75
2023/01/14 00:53:56;;;;;;;10.70;1.93;;;;;2.50;94263.00;;;;7402675;19;20155;-77
2023/01/14 00:56:30;;;;;;;7.77;2.40;;;;;2.50;94268.00;;;;7404604;19;20457;-75
2023/01/14 00:58:59;;;;;;;10.37;2.27;;;;;2.50;94261.00;;;;7403679;19;20139;-76
2023/01/14 01:01:33;;;;;;;9.97;2.80;;;;;2.50;94269.00;;;;7404983;19;20639;-76
2023/01/14 01:04:09;;;;;;;7.03;2.27;;;;;2.70;94269.00;;;;7402141;19;20495;-76
2023/01/14 01:06:43;;;;;;;10.60;2.43;;;;;2.70;94275.00;;;;7400746;19;20148;-76
2023/01/14 01:09:17;;;;;;;14.07;1.90;;;;;2.70;94279.00;;;;7403735;19;20193;-74
2023/01/14 01:11:53;;;;;;;14.23;2.40;;;;;2.80;94278.00;;;;7404713;19;20588;-75
2023/01/14 01:14:27;;;;;;;16.97;2.43;;;;;2.90;94264.00;;;;7402837;19;20141;-76
2023/01/14 01:17:01;;;;;;;14.57;2.77;;;;;2.70;94270.00;;;;7405236;19;20620;-76
2023/01/14 01:19:30;;;;;;;13.63;2.27;;;;;2.70;94273.00;;;;7403789;19;20125;-74
2023/01/14 01:22:03;;;;;;;11.67;2.33;;;;;2.80;94257.00;;;;7403604;19;20132;-76
2023/01/14 01:24:31;;;;;;;10.77;1.87;;;;;2.90;94272.00;;;;7402238;19;20163;-75
2023/01/14 01:27:05;;;;;;;16.40;2.17;;;;;2.60;94264.00;;;;7403303;19;20659;-76
2023/01/14 01:29:39;;;;;;;7.80;1.90;;;;;2.70;94265.00;;;;7404900;19;20610;-76
2023/01/14 01:32:07;;;;;;;8.97;2.40;;;;;2.70;94274.00;;;;7405090;19;20130;-75
2023/01/14 01:34:40;;;;;;;8.97;2.50;;;;;2.80;94268.00;;;;7402746;19;20171;-75
2023/01/14 01:37:07;;;;;;;9.87;2.00;;;;;2.90;94267.00;;;;7402817;19;20208;-76
2023/01/14 01:39:41;;;;;;;11.87;2.23;;;;;2.90;94265.00;;;;7404011;19;20133;-75
2023/01/14 01:42:16;;;;;;;9.30;2.40;;;;;2.90;94266.00;;;;7402285;19;20207;-76
2023/01/14 01:44:49;;;;;;;10.17;2.13;;;;;2.90;94255.00;;;;7401721;19;20152;-74
2023/01/14 01:47:19;;;;;;;8.87;2.47;;;;;3.00;94268.00;;;;7401825;19;20133;-74
2023/01/14 01:49:47;;;;;;;9.63;2.70;;;;;3.00;94264.00;;;;7402983;19;20600;-74
2023/01/14 01:52:26;;;;;;;9.87;2.07;;;;;2.80;94260.00;;;;7402602;19;20215;-75
2023/01/14 01:55:04;;;;;;;16.70;2.53;;;;;3.00;94257.00;;;;7402764;19;20520;-76
2023/01/14 01:57:39;;;;;;;13.67;2.43;;;;;3.00;94266.00;;;;7402699;19;20271;-75
2023/01/14 02:00:15;;;;;;;12.27;2.37;;;;;2.80;94263.00;;;;7400912;19;20172;-76
2023/01/14 02:03:08;;;;;;;21.97;2.73;;;;;2.60;94252.00;;;;7393753;19;20535;-81
2023/01/14 02:05:42;;;;;;;15.60;2.37;;;;;2.40;94263.00;;;;7399932;19;20168;-81
2023/01/14 02:08:12;;;;;;;14.47;2.40;;;;;2.30;94261.00;;;;7399516;19;20521;-81
2023/01/14 02:11:04;;;;;;;11.50;2.20;;;;;2.00;94261.00;;;;7401672;19;20602;-81
2023/01/14 02:13:47;;;;;;;20.53;2.43;;;;;2.10;94264.00;;;;7402697;19;20181;-82
2023/01/14 02:17:13;;;;;;;14.23;2.30;;;;;2.00;94273.00;;;;7401078;19;20132;-81
2023/01/14 02:20:06;;;;;;;13.87;2.37;;;;;1.90;94270.00;;;;7398557;19;20153;-81
2023/01/14 02:23:11;;;;;;;13.13;2.37;;;;;1.90;94274.00;;;;7398498;19;20167;-81
2023/01/14 02:25:41;;;;;;;9.00;2.47;;;;;1.70;94270.00;;;;7399529;19;20140;-81
2023/01/14 02:28:52;;;;;;;8.50;2.13;;;;;1.80;94288.00;;;;7401209;19;20163;-81
2023/01/14 02:31:46;;;;;;;10.70;1.97;;;;;1.70;94293.00;;;;7402218;19;20146;-81
2023/01/14 02:34:19;;;;;;;7.87;2.10;;;;;1.50;94299.00;;;;7399566;19;20180;-81
2023/01/14 02:37:22;;;;;;;13.70;2.33;;;;;1.40;94307.00;;;;7401946;19;20597;-81
2023/01/14 02:40:20;;;;;;;4.20;2.03;;;;;1.50;94296.00;;;;7401175;19;20196;-82
2023/01/14 02:46:10;;;;;;;11.87;1.80;;;;;1.30;94282.00;;;;7401524;19;20157;-81
2023/01/14 02:48:44;;;;;;;15.67;2.40;;;;;1.70;94280.00;;;;7400317;19;20158;-81
2023/01/14 02:51:13;;;;;;;8.60;2.33;;;;;2.10;94284.00;;;;7399916;19;20141;-81
2023/01/14 02:53:47;;;;;;;11.00;1.93;;;;;2.10;94286.00;;;;7400585;19;20131;-82
2023/01/14 02:56:14;;;;;;;10.87;2.13;;;;;2.10;94286.00;;;;7400658;19;20150;-81
2023/01/14 02:59:14;;;;;;;13.17;1.93;;;;;2.20;94280.00;;;;7398702;19;20607;-81
2023/01/14 03:02:30;;;;;;;9.13;1.73;;;;;1.90;94290.00;;;;7396442;19;20137;-80
2023/01/14 03:05:28;;;;;;;9.70;2.40;;;;;1.80;94282.00;;;;7397267;19;20212;-81
2023/01/14 03:08:28;;;;;;;6.83;1.87;;;;;1.70;94277.00;;;;7398003;19;20125;-80
2023/01/14 03:11:05;;;;;;;11.73;2.07;;;;;1.70;94272.00;;;;7399264;19;20145;-81
2023/01/14 03:13:40;;;;;;;9.83;2.17;;;;;1.50;94283.00;;;;7400399;19;20157;-81
2023/01/14 03:16:20;;;;;;;4.80;1.87;;;;;1.30;94259.00;;;;7399746;19;20145;-80
2023/01/14 03:19:04;;;;;;;13.00;2.23;;;;;1.20;94267.00;;;;7398831;19;20758;-81
2023/01/14 03:21:36;;;;;;;11.67;2.03;;;;;1.30;94255.00;;;;7398056;19;20140;-80
2023/01/14 03:24:18;;;;;;;12.63;1.93;;;;;1.30;94264.00;;;;7398449;19;20497;-80
2023/01/14 03:26:49;;;;;;;9.83;2.30;;;;;1.40;94249.00;;;;7398741;19;20470;-81
2023/01/14 03:29:30;;;;;;;12.50;1.90;;;;;1.30;94235.00;;;;7398053;19;20528;-81
2023/01/14 03:32:07;;;;;;;15.67;2.37;;;;;1.30;94234.00;;;;7398951;19;20136;-80
2023/01/14 03:34:47;;;;;;;9.90;2.63;;;;;1.40;94227.00;;;;7396610;19;20144;-81
2023/01/14 03:37:18;;;;;;;11.77;1.80;;;;;1.20;94220.00;;;;7400113;19;20216;-81
2023/01/14 03:39:54;;;;;;;9.07;1.70;;;;;1.10;94223.00;;;;7397399;19;20147;-80
2023/01/14 03:42:29;;;;;;;8.93;1.70;;;;;1.00;94218.00;;;;7397585;19;20140;-81
2023/01/14 03:45:11;;;;;;;13.27;2.00;;;;;0.80;94222.00;;;;7399503;19;20132;-81
2023/01/14 03:47:46;;;;;;;11.60;1.90;;;;;1.00;94217.00;;;;7398914;19;20257;-79
2023/01/14 03:50:23;;;;;;;9.83;2.70;;;;;1.20;94223.00;;;;7397888;19;20192;-79
2023/01/14 03:53:03;;;;;;;12.93;2.17;;;;;1.50;94223.00;;;;7397852;19;20140;-80
2023/01/14 03:56:13;;;;;;;12.37;2.80;;;;;1.40;94210.00;;;;7399285;19;20602;-79
2023/01/14 03:58:56;;;;;;;6.80;1.70;;;;;1.60;94203.00;;;;7395299;19;20153;-79
2023/01/14 04:01:38;;;;;;;14.07;2.47;;;;;1.60;94203.00;;;;7397187;19;20156;-82
2023/01/14 04:04:12;;;;;;;8.80;2.03;;;;;1.60;94196.00;;;;7394672;19;20287;-81
2023/01/14 04:06:46;;;;;;;11.97;2.17;;;;;1.50;94199.00;;;;7399791;19;20133;-82
2023/01/14 04:09:15;;;;;;;11.83;2.80;;;;;1.50;94191.00;;;;7394409;19;20146;-82
2023/01/14 04:11:49;;;;;;;18.90;2.57;;;;;1.40;94194.00;;;;7395797;19;20153;-80
2023/01/14 04:17:09;;;;;;;11.03;1.90;;;;;1.50;94189.00;;;;7397733;19;20523;-81
2023/01/14 04:19:46;;;;;;;9.90;1.87;;;;;1.40;94184.00;;;;7393531;19;20159;-83
2023/01/14 04:22:20;;;;;;;9.10;1.87;;;;;1.40;94181.00;;;;7393110;19;20163;-83
2023/01/14 04:24:47;;;;;;;10.83;2.57;;;;;1.40;94177.00;;;;7397079;19;20604;-83
2023/01/14 04:27:14;;;;;;;12.10;1.97;;;;;1.40;94183.00;;;;7398347;19;20485;-83
2023/01/14 04:29:49;;;;;;;11.67;2.20;;;;;1.20;94185.00;;;;7398075;19;20191;-80
2023/01/14 04:32:16;;;;;;;9.90;1.90;;;;;1.10;94179.00;;;;7396306;19;20137;-81
2023/01/14 04:34:50;;;;;;;12.33;2.10;;;;;1.20;94180.00;;;;7399096;19;20188;-82
2023/01/14 04:37:17;;;;;;;12.27;2.13;;;;;1.20;94185.00;;;;7395483;19;20500;-82
2023/01/14 04:39:51;;;;;;;9.37;2.20;;;;;1.20;94170.00;;;;7396312;19;20612;-82
2023/01/14 04:42:31;;;;;;;10.40;2.20;;;;;1.20;94168.00;;;;7395101;19;20155;-82
2023/01/14 04:45:05;;;;;;;9.90;2.03;;;;;1.10;94165.00;;;;7393367;19;20136;-80
2023/01/14 04:47:32;;;;;;;8.40;1.73;;;;;0.90;94164.00;;;;7396558;19;20147;-80
2023/01/14 04:52:54;;;;;;;13.70;2.00;;;;;0.80;94156.00;;;;7396653;19;20141;-80
2023/01/14 04:55:29;;;;;;;12.90;1.77;;;;;0.90;94155.00;;;;7395009;19;20156;-80
2023/01/14 04:57:56;;;;;;;8.83;1.70;;;;;0.80;94147.00;;;;7396804;19;20140;-83
2023/01/14 05:00:30;;;;;;;6.43;1.63;;;;;0.70;94148.00;;;;7393728;19;20129;-83
2023/01/14 05:03:00;;;;;;;13.00;2.23;;;;;0.70;94151.00;;;;7393740;19;20172;-82
2023/01/14 05:05:42;;;;;;;12.03;2.00;;;;;0.50;94153.00;;;;7395798;19;20136;-83
2023/01/14 05:08:16;;;;;;;10.87;2.10;;;;;0.60;94160.00;;;;7398011;19;20583;-81
2023/01/14 05:10:50;;;;;;;9.03;2.13;;;;;0.70;94153.00;;;;7397388;19;20153;-81
2023/01/14 05:13:24;;;;;;;5.70;1.93;;;;;0.60;94152.00;;;;7394327;19;20129;-83
2023/01/14 05:15:52;;;;;;;6.93;2.00;;;;;0.60;94147.00;;;;7395660;19;20125;-82
2023/01/14 05:18:27;;;;;;;16.20;2.00;;;;;0.50;94149.00;;;;7395751;19;20152;-83
2023/01/14 05:20:56;;;;;;;11.03;2.30;;;;;0.60;94146.00;;;;7397797;19;20117;-83
2023/01/14 05:23:32;;;;;;;11.37;2.30;;;;;0.70;94147.00;;;;7395719;19;20211;-81
2023/01/14 05:26:09;;;;;;;7.57;1.97;;;;;0.70;94128.00;;;;7403181;19;20627;-83
2023/01/14 05:28:43;;;;;;;8.17;1.90;;;;;0.90;94135.00;;;;7402507;19;20483;-83
2023/01/14 05:31:11;;;;;;;12.53;1.83;;;;;0.90;94131.00;;;;7403991;19;20258;-81
2023/01/14 05:33:47;;;;;;;7.53;2.00;;;;;0.80;94133.00;;;;7403875;19;20140;-81
2023/01/14 05:36:14;;;;;;;14.97;2.33;;;;;0.80;94133.00;;;;7395038;19;20600;-83
2023/01/14 05:38:48;;;;;;;13.40;2.87;;;;;0.70;94126.00;;;;7402545;19;20129;-84
2023/01/14 05:41:25;;;;;;;11.40;2.80;;;;;0.70;94116.00;;;;7400676;19;20143;-81
2023/01/14 05:46:52;;;;;;;12.20;2.63;;;;;0.40;94126.00;;;;7400077;19;20622;-82
2023/01/14 05:49:19;;;;;;;11.10;1.93;;;;;0.50;94120.00;;;;7402766;19;20499;-81
2023/01/14 05:51:53;;;;;;;13.17;2.60;;;;;0.60;94114.00;;;;7404349;19;20136;-83
2023/01/14 05:54:21;;;;;;;11.53;3.10;;;;;0.70;94114.00;;;;7402606;19;20500;-84
2023/01/14 05:56:58;;;;;;;6.60;2.33;;;;;0.80;94116.00;;;;7401049;19;20143;-83
2023/01/14 05:59:35;;;;;;;9.27;2.23;;;;;0.80;94108.00;;;;7401175;19;20129;-83
2023/01/14 06:08:04;;;;;;;19.70;2.27;;;;;0.70;94107.00;;;;7400286;19;20232;-81
2023/01/14 06:10:36;;;;;;;11.50;2.80;;;;;0.80;94100.00;;;;7402871;19;20523;-82
2023/01/14 06:13:13;;;;;;;19.23;2.53;;;;;0.90;94105.00;;;;7401903;19;20159;-82
2023/01/14 06:15:55;;;;;;;8.27;3.00;;;;;0.90;94105.00;;;;7399109;19;20156;-85
2023/01/14 06:18:23;;;;;;;20.03;3.27;;;;;0.90;94100.00;;;;7400289;19;20166;-85
2023/01/14 06:21:00;;;;;;;21.47;3.47;;;;;1.10;94103.00;;;;7399376;19;20159;-85
2023/01/14 06:23:35;;;;;;;17.20;3.37;;;;;1.30;94100.00;;;;7401218;19;20160;-82
2023/01/14 06:26:15;;;;;;;20.00;3.53;;;;;1.50;94101.00;;;;7399309;19;20156;-81
2023/01/14 06:28:52;;;;;;;12.47;2.73;;;;;1.70;94094.00;;;;7399780;19;20610;-82
2023/01/14 06:31:29;;;;;;;17.93;3.00;;;;;1.70;94096.00;;;;7399951;19;20156;-82
2023/01/14 06:34:03;;;;;;;14.30;3.50;;;;;2.00;94094.00;;;;7398420;19;20223;-82
2023/01/14 06:36:33;;;;;;;9.67;2.73;;;;;2.10;94083.00;;;;7398569;19;20882;-80
2023/01/14 06:39:07;;;;;;;15.17;3.07;;;;;2.00;94091.00;;;;7400638;19;20192;-82
2023/01/14 06:41:35;;;;;;;14.47;2.93;;;;;1.90;94073.00;;;;7398689;19;20164;-83
2023/01/14 06:44:09;;;;;;;14.20;2.70;;;;;2.10;94079.00;;;;7399936;19;20486;-81
2023/01/14 06:46:37;;;;;;;16.77;3.03;;;;;2.10;94077.00;;;;7399463;19;20144;-85
2023/01/14 06:49:11;;;;;;;11.00;2.93;;;;;2.10;94073.00;;;;7400360;19;20220;-84
2023/01/14 06:51:40;;;;;;;23.47;3.40;;;;;2.40;94070.00;;;;7400937;19;20487;-83
2023/01/14 06:54:15;;;;;;;21.53;3.97;;;;;2.40;94064.00;;;;7398958;19;20176;-82
2023/01/14 06:56:43;;;;;;;16.90;3.43;;;;;2.40;94068.00;;;;7401330;19;20496;-80
2023/01/14 06:59:17;;;;;;;27.10;3.87;;;;;2.30;94077.00;;;;7400447;19;20212;-80
2023/01/14 07:01:51;;;;;;;17.37;3.40;;;;;2.50;94073.00;;;;7399430;19;20568;-83
2023/01/14 07:04:26;;;;;;;11.77;2.90;;;;;2.50;94055.00;;;;7399558;19;20745;-82
2023/01/14 07:07:00;;;;;;;20.70;2.93;;;;;2.50;94058.00;;;;7400690;19;20161;-83
2023/01/14 07:09:28;;;;;;;18.13;3.80;;;;;2.60;94052.00;;;;7400661;19;20135;-82
2023/01/14 07:12:02;;;;;;;13.67;2.87;;;;;2.70;94053.00;;;;7399706;19;20448;-82
2023/01/14 07:14:30;;;;;;;10.97;2.77;;;;;2.90;94044.00;;;;7401142;19;20543;-83
2023/01/14 07:17:05;;;;;;;22.57;3.40;;;;;2.90;94045.00;;;;7398368;19;20216;-83
2023/01/14 07:19:32;;;;;;;17.43;3.17;;;;;2.70;94044.00;;;;7398928;19;20184;-82
2023/01/14 07:22:06;;;;;;;19.87;3.37;;;;;3.00;94032.00;;;;7398851;19;20139;-82
2023/01/14 07:24:37;;;;;;;18.93;3.57;;;;;3.00;94026.00;;;;7397982;19;20163;-83
2023/01/14 07:27:11;;;;;;;19.60;3.43;;;;;3.00;94032.00;;;;7400832;19;20163;-84
2023/01/14 07:29:45;;;;;;;13.80;3.20;;;;;3.10;94022.00;;;;7399765;19;20589;-85
2023/01/14 07:32:13;;;;;;;13.70;2.67;;;;;3.20;94020.00;;;;7399903;19;20152;-83
2023/01/14 07:34:49;;;;;;;14.90;3.53;;;;;3.20;94030.00;;;;7400223;19;20152;-83
2023/01/14 07:37:17;;;;;;;11.03;3.00;;;;;3.20;94022.00;;;;7401238;19;20167;-84
2023/01/14 07:39:51;;;;;;;24.97;3.97;;;;;3.30;94032.00;;;;7399467;19;20162;-84
2023/01/14 07:42:26;;;;;;;20.57;3.70;;;;;3.40;94024.00;;;;7400933;19;20160;-84
2023/01/14 07:44:53;;;;;;;10.87;3.13;;;;;3.30;94022.00;;;;7397677;19;20260;-85
2023/01/14 07:47:34;;;;;;;15.07;4.30;;;;;3.30;94026.00;;;;7400406;19;20136;-85
2023/01/14 07:50:02;;;;;;;16.50;3.57;;;;;3.40;94014.00;;;;7399408;19;20132;-85
2023/01/14 07:52:36;;;;;;;13.97;2.97;;;;;3.30;94012.00;;;;7399569;19;20160;-84
2023/01/14 07:55:05;;;;;;;16.67;2.90;;;;;3.40;94007.00;;;;7399551;19;20149;-83
2023/01/14 07:57:33;;;;;;;19.50;3.07;;;;;3.50;94005.00;;;;7400663;19;20150;-84
2023/01/14 08:00:09;;;;;;;15.10;3.37;;;;;3.40;94004.00;;;;7399352;19;20128;-83
2023/01/14 08:02:58;;;;;;;19.93;3.73;;;;;3.40;94006.00;;;;7397023;19;20175;-83
2023/01/14 08:05:35;;;;;;;18.03;3.27;;;;;3.60;94001.00;;;;7396651;19;20591;-83
2023/01/14 08:08:19;;;;;;;13.43;3.50;;;;;3.80;93993.00;;;;7396658;19;20155;-85
2023/01/14 08:10:59;;;;;;;14.63;3.47;;;;;3.50;94000.00;;;;7398122;19;20155;-84
2023/01/14 08:13:27;;;;;;;14.23;2.80;;;;;3.60;94007.00;;;;7398095;19;20144;-84
2023/01/14 08:16:15;;;;;;;14.03;2.73;;;;;3.60;94006.00;;;;7391289;19;20163;-83
2023/01/14 08:18:49;;;;;;;9.47;2.67;;;;;3.60;94004.00;;;;7395849;19;20136;-85
2023/01/14 08:21:17;;;;;;;11.97;2.47;;;;;3.60;94005.00;;;;7395418;19;20132;-85
2023/01/14 08:23:51;;;;;;;10.93;2.77;;;;;3.60;93995.00;;;;7397541;19;20133;-81
2023/01/14 08:26:25;;;;;;;6.77;2.20;;;;;3.70;93991.00;;;;7393668;19;20146;-83
2023/01/14 08:29:00;;;;;;;9.60;2.03;;;;;3.90;93982.00;;;;7393743;19;20199;-84
2023/01/14 08:31:40;;;;;;;8.13;2.63;;;;;4.00;93991.00;;;;7395050;19;20160;-85
2023/01/14 08:34:14;;;;;;;12.47;2.37;;;;;3.90;93987.00;;;;7396974;19;20619;-83
2023/01/14 08:36:51;;;;;;;13.30;2.40;;;;;4.10;93991.00;;;;7395330;19;20148;-84
2023/01/14 08:39:25;;;;;;;17.37;2.60;;;;;4.20;93986.00;;;;7393860;19;20148;-83
2023/01/14 08:42:05;;;;;;;9.10;2.73;;;;;4.30;93979.00;;;;7396669;19;20144;-82
2023/01/14 08:44:34;;;;;;;12.60;2.20;;;;;4.40;93996.00;;;;7394155;19;20148;-82
2023/01/14 08:47:08;;;;;;;17.30;5.17;;;;;4.40;94000.00;;;;7396503;19;20618;-83
2023/01/14 08:49:39;;;;;;;10.57;2.53;;;;;4.50;93998.00;;;;7396390;19;20153;-84
2023/01/14 08:52:13;;;;;;;10.70;1.90;;;;;4.20;93991.00;;;;7392888;19;20165;-83
2023/01/14 08:54:48;;;;;;;12.73;3.30;;;;;4.40;93982.00;;;;7397752;19;20606;-84
2023/01/14 08:57:23;;;;;;;12.53;2.77;;;;;4.50;93975.00;;;;7401097;19;20579;-83
2023/01/14 09:00:00;;;;;;;13.00;2.50;;;;;4.50;93973.00;;;;7404234;19;20132;-83
2023/01/14 09:02:48;;;;;;;9.57;2.20;;;;;4.50;93973.00;;;;7396241;19;20767;-83
2023/01/14 09:05:23;;;;;;;9.23;2.10;;;;;4.50;93970.00;;;;7403517;19;20163;-81
2023/01/14 09:19:28;;;;;;;9.13;2.17;;;;;4.90;93952.00;;;;7403818;19;20133;-81
2023/01/14 09:22:05;;;;;;;11.83;2.33;;;;;4.80;93953.00;;;;7400931;19;20156;-80
2023/01/14 09:24:39;;;;;;;13.57;2.77;;;;;4.90;93947.00;;;;7403973;19;20147;-82
2023/01/14 09:27:07;;;;;;;4.97;1.87;;;;;5.10;93950.00;;;;7400277;19;20128;-83
2023/01/14 09:29:41;;;;;;;7.33;2.27;;;;;5.00;93947.00;;;;7398100;19;20725;-81
2023/01/14 09:32:17;;;;;;;6.40;2.40;;;;;4.80;93946.00;;;;7398652;19;20567;-82
2023/01/14 09:34:54;;;;;;;7.20;2.30;;;;;4.90;93939.00;;;;7397241;19;20180;-82
2023/01/14 09:37:24;;;;;;;8.67;2.70;;;;;4.90;93938.00;;;;7399225;19;20165;-82
2023/01/14 09:39:58;;;;;;;9.53;2.60;;;;;5.30;93934.00;;;;7394569;19;20519;-80
2023/01/14 09:42:42;;;;;;;12.93;2.90;;;;;5.30;93932.00;;;;7397865;19;20159;-83
2023/01/14 09:45:18;;;;;;;9.13;2.43;;;;;5.20;93936.00;;;;7394805;19;20585;-83
2023/01/14 09:47:54;;;;;;;10.77;2.67;;;;;5.30;93943.00;;;;7396020;19;20135;-83
2023/01/14 09:50:43;;;;;;;8.80;2.47;;;;;5.10;93945.00;;;;7398245;19;20144;-84
2023/01/14 09:53:17;;;;;;;9.03;2.53;;;;;5.20;93944.00;;;;7399650;19;20156;-83
2023/01/14 09:56:18;;;;;;;8.70;2.53;;;;;5.30;93935.00;;;;7398432;19;20145;-82
2023/01/14 09:58:59;;;;;;;11.93;2.53;;;;;5.30;93936.00;;;;7397714;19;20145;-82
2023/01/14 10:01:57;;;;;;;9.40;2.60;;;;;5.20;93912.00;;;;7394042;19;20591;-82
2023/01/14 10:05:10;;;;;;;10.53;2.93;;;;;5.40;93879.00;;;;7399033;19;20163;-81
2023/01/14 10:07:38;;;;;;;11.97;2.33;;;;;5.40;93875.00;;;;7397737;19;20722;-82
2023/01/14 10:10:35;;;;;;;6.30;2.00;;;;;5.60;93866.00;;;;7398620;19;20129;-83
2023/01/14 10:13:11;;;;;;;10.43;2.40;;;;;5.60;93858.00;;;;7399692;19;20154;-84
2023/01/14 10:15:56;;;;;;;8.40;2.20;;;;;5.80;93848.00;;;;7397496;19;20595;-84
2023/01/14 10:18:45;;;;;;;4.77;2.63;;;;;5.90;93849.00;;;;7396640;19;20624;-81
2023/01/14 10:21:40;;;;;;;11.47;3.10;;;;;6.00;93857.00;;;;7398228;19;20140;-83
2023/01/14 10:24:19;;;;;;;8.63;2.20;;;;;6.10;93834.00;;;;7384282;19;20156;-83
2023/01/14 10:26:56;;;;;;;10.40;2.30;;;;;6.10;93829.00;;;;7396449;19;20472;-83
2023/01/14 10:29:32;;;;;;;5.07;1.83;;;;;6.30;93832.00;;;;7396193;19;20161;-85
2023/01/14 10:32:01;;;;;;;3.63;1.80;;;;;6.30;93819.00;;;;7396181;19;20168;-85
2023/01/14 10:34:40;;;;;;;3.60;1.57;;;;;6.50;93819.00;;;;7397456;19;20145;-85
2023/01/14 10:37:15;;;;;;;6.00;1.60;;;;;6.50;93820.00;;;;7398012;19;20152;-84
2023/01/14 10:39:51;;;;;;;4.97;1.90;;;;;6.70;93818.00;;;;7393118;19;20197;-83
2023/01/14 10:42:26;;;;;;;1.40;1.23;;;;;6.80;93809.00;;;;7396395;19;20165;-84
2023/01/14 10:45:01;;;;;;;1.93;0.90;;;;;7.00;93804.00;;;;7392454;19;20216;-83
2023/01/14 10:47:35;;;;;;;2.63;1.20;;;;;7.00;93799.00;;;;7397289;19;20623;-84
2023/01/14 10:50:27;;;;;;;2.20;1.37;;;;;6.80;93790.00;;;;7397187;19;20619;-85
2023/01/14 10:53:19;;;;;;;1.27;0.80;;;;;7.00;93792.00;;;;7393407;19;20534;-86
2023/01/14 10:55:48;;;;;;;1.43;0.77;;;;;7.00;93780.00;;;;7397686;19;20147;-85
2023/01/14 10:58:40;;;;;;;2.00;0.70;;;;;7.10;93770.00;;;;7393749;19;20144;-85
2023/01/14 11:01:15;;;;;;;1.43;0.70;;;;;7.10;93770.00;;;;7394994;19;20168;-86
2023/01/14 11:03:48;;;;;;;0.67;0.67;;;;;7.20;93767.00;;;;7395587;19;20626;-85
2023/01/14 11:06:30;;;;;;;2.10;1.20;;;;;7.20;93764.00;;;;7398635;19;20140;-85
2023/01/14 11:08:57;;;;;;;1.23;0.70;;;;;7.20;93756.00;;;;7397757;19;20129;-85
2023/01/14 11:11:40;;;;;;;1.70;1.43;;;;;7.30;93757.00;;;;7388406;19;20290;-86
2023/01/14 11:14:25;;;;;;;2.97;1.10;;;;;7.30;93756.00;;;;7390915;19;20138;-85
2023/01/14 11:17:19;;;;;;;2.00;0.90;;;;;7.30;93754.00;;;;7395241;19;20125;-85
2023/01/14 11:20:24;;;;;;;2.17;0.90;;;;;7.40;93758.00;;;;7395723;19;20136;-85
2023/01/14 11:23:02;;;;;;;2.00;0.97;;;;;7.40;93750.00;;;;7396408;19;20136;-86
2023/01/14 11:25:30;;;;;;;1.47;0.63;;;;;7.40;93740.00;;;;7394269;19;20121;-86
2023/01/14 11:28:06;;;;;;;1.77;0.57;;;;;7.50;93730.00;;;;7392658;19;20132;-86
2023/01/14 11:30:35;;;;;;;1.47;0.60;;;;;7.50;93734.00;;;;7392742;19;20878;-86
2023/01/14 11:33:24;;;;;;;2.37;0.87;;;;;7.60;93724.00;;;;7395817;19;20161;-86
2023/01/14 11:36:28;;;;;;;1.73;0.50;;;;;7.60;93717.00;;;;7395443;19;20623;-86
2023/01/14 11:39:02;;;;;;;0.90;0.60;;;;;7.80;93719.00;;;;7397385;19;20191;-86
2023/01/14 11:41:40;;;;;;;1.27;0.77;;;;;7.60;93710.00;;;;7398716;19;20738;-83
2023/01/14 11:44:32;;;;;;;3.37;1.10;;;;;7.70;93709.00;;;;7397289;19;20548;-85
2023/01/14 11:47:14;;;;;;;2.33;0.70;;;;;7.70;93691.00;;;;7396606;19;20536;-85
2023/01/14 11:50:09;;;;;;;0.93;0.90;;;;;7.70;93691.00;;;;7396164;19;20616;-87
2023/01/14 11:52:58;;;;;;;10.00;5.57;;;;;7.70;93686.00;;;;7397370;19;20184;-86
2023/01/14 11:55:35;;;;;;;3.87;2.23;;;;;7.70;93675.00;;;;7398401;19;20132;-85
2023/01/14 11:58:09;;;;;;;1.53;0.63;;;;;7.70;93660.00;;;;7396737;19;20148;-85
2023/01/14 12:00:54;;;;;;;1.70;0.80;;;;;7.50;93654.00;;;;7396312;19;20591;-85
2023/01/14 12:03:33;;;;;;;3.23;1.83;;;;;7.50;93655.00;;;;7395325;19;20168;-86
2023/01/14 12:06:28;;;;;;;4.23;2.60;;;;;7.50;93650.00;;;;7396995;19;20141;-85
2023/01/14 12:09:04;;;;;;;3.10;2.10;;;;;7.40;93648.00;;;;7397267;19;20157;-84
2023/01/14 12:11:58;;;;;;;5.87;3.17;;;;;7.30;93629.00;;;;7393828;19;20587;-84
2023/01/14 12:17:49;;;;;;;3.00;1.53;;;;;7.40;93606.00;;;;7396123;19;20166;-84
2023/01/14 12:20:28;;;;;;;2.97;1.60;;;;;7.30;93598.00;;;;7394233;19;20153;-83
2023/01/14 12:23:05;;;;;;;2.20;1.30;;;;;7.30;93590.00;;;;7387138;19;20717;-84
2023/01/14 12:25:48;;;;;;;1.30;1.20;;;;;7.10;93588.00;;;;7392187;19;20243;-82
2023/01/14 12:28:38;;;;;;;3.17;1.10;;;;;7.20;93581.00;;;;7391849;19;20132;-84
2023/01/14 12:31:17;;;;;;;0.83;0.70;;;;;7.30;93587.00;;;;7385467;19;20152;-83
2023/01/14 12:33:50;;;;;;;4.30;1.73;;;;;7.30;93579.00;;;;7392796;19;20498;-84
2023/01/14 12:36:38;;;;;;;0.97;0.73;;;;;7.30;93570.00;;;;7388504;19;20160;-83
2023/01/14 12:45:53;;;;;;;2.23;1.30;;;;;7.40;93559.00;;;;7391621;19;20187;-84
2023/01/14 12:48:30;;;;;;;1.77;1.20;;;;;7.50;93559.00;;;;7392285;19;20571;-83
2023/01/14 12:51:31;;;;;;;1.37;1.20;;;;;7.60;93547.00;;;;7395374;19;20151;-83
2023/01/14 12:54:06;;;;;;;1.80;0.60;;;;;7.70;93544.00;;;;7391472;19;20188;-85
2023/01/14 12:56:52;;;;;;;1.83;1.10;;;;;7.90;93537.00;;;;7394192;19;20493;-84
2023/01/14 12:59:36;;;;;;;2.50;1.20;;;;;7.80;93543.00;;;;7390868;19;20152;-84
2023/01/14 13:02:41;;;;;;;1.47;0.90;;;;;8.00;93531.00;;;;7388843;19;20604;-83
2023/01/14 13:05:28;;;;;;;1.37;0.63;;;;;8.10;93516.00;;;;7390254;19;20514;-83
2023/01/14 13:08:20;;;;;;;2.60;1.23;;;;;8.00;93516.00;;;;7389281;19;20180;-82
2023/01/14 13:11:03;;;;;;;2.77;1.33;;;;;8.00;93513.00;;;;7391162;19;20615;-82
2023/01/14 13:13:44;;;;;;;2.73;1.27;;;;;7.80;93521.00;;;;7391199;19;20129;-82
2023/01/14 13:16:48;;;;;;;1.10;0.63;;;;;7.60;93487.00;;;;7386446;19;20133;-82
2023/01/14 13:19:34;;;;;;;1.27;0.87;;;;;7.70;93480.00;;;;7392376;19;20129;-82
2023/01/14 13:22:13;;;;;;;1.43;1.07;;;;;7.80;93482.00;;;;7391193;19;20172;-80
2023/01/14 13:24:47;;;;;;;1.50;0.80;;;;;7.80;93485.00;;;;7390749;19;20133;-81
2023/01/14 13:27:41;;;;;;;2.40;0.50;;;;;7.90;93482.00;;;;7391236;19;20160;-83
2023/01/14 13:30:19;;;;;;;1.83;0.67;;;;;8.00;93471.00;;;;7392921;19;20192;-77
2023/01/14 13:33:14;;;;;;;1.00;0.60;;;;;7.90;93442.00;;;;7390172;19;20163;-81
2023/01/14 13:36:02;;;;;;;1.37;0.80;;;;;7.90;93456.00;;;;7390737;19;20209;-81
2023/01/14 13:39:10;;;;;;;2.03;0.90;;;;;7.90;93443.00;;;;7392545;19;20480;-81
2023/01/14 13:41:49;;;;;;;1.83;0.90;;;;;7.90;93456.00;;;;7389912;19;20177;-80
2023/01/14 13:44:27;;;;;;;1.27;0.63;;;;;7.80;93455.00;;;;7396500;19;20583;-80
2023/01/14 13:47:01;;;;;;;0.70;0.50;;;;;7.90;93460.00;;;;7397829;19;20215;-80
2023/01/14 13:49:40;;;;;;;0.83;0.60;;;;;8.00;93447.00;;;;7397343;19;20141;-79
2023/01/14 13:52:16;;;;;;;1.07;0.53;;;;;8.10;93433.00;;;;7397815;19;20148;-79